createdAt,value
2022-09-23T00:00:47.579Z,99923.94
2022-09-23T00:03:15.615Z,99927.28
2022-09-23T00:05:42.910Z,99921.53
2022-09-23T00:08:11.879Z,99921.53
2022-09-23T00:10:40.259Z,99921.78
2022-09-23T00:13:07.143Z,99927.81
2022-09-23T00:15:39.938Z,99925.69
2022-09-23T00:18:06.734Z,99919.41
2022-09-23T00:20:34.999Z,99915.50
2022-09-23T00:23:02.877Z,99914.41
2022-09-23T00:25:29.760Z,99910.94
2022-09-23T00:27:57.248Z,99909.09
2022-09-23T00:30:24.178Z,99904.19
2022-09-23T00:32:50.940Z,99906.72
2022-09-23T00:35:17.722Z,99899.41
2022-09-23T00:37:44.524Z,99898.94
2022-09-23T00:40:11.494Z,99893.34
2022-09-23T00:42:38.322Z,99894.38
2022-09-23T00:45:05.389Z,99893.13
2022-09-23T00:47:45.059Z,99892.88
2022-09-23T00:50:21.089Z,99888.69
2022-09-23T00:52:50.849Z,99891.78
2022-09-23T00:55:42.453Z,99886.78
2022-09-23T00:58:12.201Z,99891.75
2022-09-23T01:00:39.164Z,99887.56
2022-09-23T01:03:07.256Z,99888.34
2022-09-23T01:05:34.463Z,99886.50
2022-09-23T01:08:03.851Z,99885.19
2022-09-23T01:10:40.643Z,99887.25
2022-09-23T01:13:24.403Z,99878.38
2022-09-23T01:16:14.426Z,99881.78
2022-09-23T01:18:50.356Z,99882.22
2022-09-23T01:22:13.811Z,99885.09
2022-09-23T01:25:19.278Z,99877.75
2022-09-23T01:28:15.186Z,99881.38
2022-09-23T01:30:48.315Z,99887.91
2022-09-23T01:33:42.566Z,99880.78
2022-09-23T01:36:30.120Z,99884.78
2022-09-23T01:39:35.057Z,99880.78
2022-09-23T01:42:16.365Z,99877.69
2022-09-23T01:44:49.943Z,99876.13
2022-09-23T01:47:28.555Z,99878.50
2022-09-23T01:50:08.838Z,99865.16
2022-09-23T01:52:47.070Z,99876.31
2022-09-23T01:55:22.537Z,99878.88
2022-09-23T01:58:27.757Z,99867.16
2022-09-23T02:01:03.561Z,99870.91
2022-09-23T02:03:58.755Z,99875.78
2022-09-23T02:06:55.878Z,99871.91
2022-09-23T02:09:28.286Z,99873.88
2022-09-23T02:12:00.546Z,99873.88
2022-09-23T02:14:46.319Z,99867.09
2022-09-23T02:17:23.107Z,99868.34
2022-09-23T02:20:02.191Z,99867.38
2022-09-23T02:23:07.608Z,99859.25
2022-09-23T02:25:59.256Z,99856.56
2022-09-23T02:28:49.829Z,99853.38
2022-09-23T02:31:43.693Z,99858.06
2022-09-23T02:34:39.439Z,99861.47
2022-09-23T02:37:21.161Z,99860.72
2022-09-23T02:40:02.970Z,99861.69
2022-09-23T02:42:50.029Z,99870.34
2022-09-23T02:45:18.578Z,99862.22
2022-09-23T02:47:51.989Z,99864.28
2022-09-23T02:50:19.381Z,99858.38
2022-09-23T02:52:46.751Z,99859.91
2022-09-23T02:55:17.881Z,99858.03
2022-09-23T02:57:45.925Z,99847.88
2022-09-23T03:00:13.396Z,99856.75
2022-09-23T03:02:49.055Z,99853.38
2022-09-23T03:05:25.081Z,99852.03
2022-09-23T03:07:51.739Z,99858.50
2022-09-23T03:10:48.713Z,99850.16
2022-09-23T03:13:35.772Z,99850.19
2022-09-23T03:16:11.311Z,99852.44
2022-09-23T03:18:48.722Z,99850.16
2022-09-23T03:21:31.911Z,99839.66
2022-09-23T03:24:02.795Z,99841.66
2022-09-23T03:26:36.294Z,99847.38
2022-09-23T03:29:09.833Z,99839.59
2022-09-23T03:31:38.307Z,99848.47
2022-09-23T03:34:16.348Z,99834.31
2022-09-23T03:37:03.284Z,99841.88
2022-09-23T03:39:44.404Z,99845.03
2022-09-23T03:42:17.192Z,99843.16
2022-09-23T03:44:46.646Z,99837.13
2022-09-23T03:47:15.429Z,99839.56
2022-09-23T03:49:46.386Z,99837.94
2022-09-23T03:52:13.156Z,99835.38
2022-09-23T03:54:39.838Z,99831.44
2022-09-23T03:57:06.948Z,99829.63
2022-09-23T03:59:34.149Z,99825.09
2022-09-23T04:02:01.284Z,99833.19
2022-09-23T04:04:28.736Z,99832.88
2022-09-23T04:06:56.551Z,99832.72
2022-09-23T04:09:23.539Z,99832.22
2022-09-23T04:11:54.097Z,99830.56
2022-09-23T04:14:22.137Z,99829.53
2022-09-23T04:16:50.205Z,99833.13
2022-09-23T04:19:18.087Z,99839.34
2022-09-23T04:21:45.608Z,99834.88
2022-09-23T04:24:13.988Z,99831.41
2022-09-23T04:26:41.726Z,99827.34
2022-09-23T04:29:08.836Z,99829.88
2022-09-23T04:31:35.721Z,99828.16
2022-09-23T04:34:02.817Z,99826.59
2022-09-23T04:36:29.732Z,99835.88
2022-09-23T04:38:56.839Z,99835.06
2022-09-23T04:41:23.721Z,99836.88
2022-09-23T04:43:50.497Z,99832.59
2022-09-23T04:46:17.389Z,99838.00
2022-09-23T04:48:44.759Z,99839.19
2022-09-23T04:51:19.272Z,99831.50
2022-09-23T04:53:48.181Z,99835.91
2022-09-23T04:56:17.778Z,99836.72
2022-09-23T04:58:45.231Z,99835.72
2022-09-23T05:01:14.461Z,99827.56
2022-09-23T05:03:42.482Z,99832.78
2022-09-23T05:06:10.720Z,99840.06
2022-09-23T05:08:37.524Z,99843.75
2022-09-23T05:11:05.294Z,99840.16
2022-09-23T05:13:32.411Z,99836.28
2022-09-23T05:16:00.374Z,99835.84
2022-09-23T05:18:34.483Z,99836.88
2022-09-23T05:21:02.126Z,99849.19
2022-09-23T05:23:30.245Z,99852.00
2022-09-23T05:25:59.639Z,99851.34
2022-09-23T05:28:27.814Z,99859.50
2022-09-23T05:31:00.993Z,99864.72
2022-09-23T05:33:28.086Z,99858.75
2022-09-23T05:35:54.823Z,99858.81
2022-09-23T05:38:21.599Z,99872.84
2022-09-23T05:40:58.454Z,99881.25
2022-09-23T05:43:26.065Z,99877.63
2022-09-23T05:46:03.022Z,99878.19
2022-09-23T05:48:32.846Z,99872.03
2022-09-23T05:51:00.742Z,99881.47
2022-09-23T05:53:28.773Z,99874.72
2022-09-23T05:55:58.677Z,99877.13
2022-09-23T05:58:25.635Z,99875.88
2022-09-23T06:00:52.622Z,99870.19
2022-09-23T06:03:20.576Z,99874.44
2022-09-23T06:05:47.806Z,99881.56
2022-09-23T06:08:15.069Z,99874.28
2022-09-23T06:10:44.339Z,99870.69
2022-09-23T06:13:11.846Z,99881.16
2022-09-23T06:15:39.607Z,99876.47
2022-09-23T06:18:07.459Z,99879.41
2022-09-23T06:20:34.704Z,99875.00
2022-09-23T06:23:10.896Z,99875.56
2022-09-23T06:25:38.411Z,99880.78
2022-09-23T06:28:05.317Z,99883.72
2022-09-23T06:30:32.179Z,99886.88
2022-09-23T06:32:59.122Z,99887.44
2022-09-23T06:35:27.839Z,99892.97
2022-09-23T06:37:55.322Z,99883.84
2022-09-23T06:40:23.838Z,99885.97
2022-09-23T06:42:58.449Z,99885.72
2022-09-23T06:45:25.992Z,99887.31
2022-09-23T06:47:57.899Z,99888.13
2022-09-23T06:50:27.919Z,99895.72
2022-09-23T06:52:55.642Z,99889.97
2022-09-23T06:55:26.640Z,99895.72
2022-09-23T06:57:55.711Z,99895.69
2022-09-23T07:00:22.546Z,99902.50
2022-09-23T07:02:49.431Z,99910.06
2022-09-23T07:05:16.889Z,99903.22
2022-09-23T07:07:46.573Z,99911.53
2022-09-23T07:10:13.350Z,99903.13
2022-09-23T07:12:41.007Z,99900.19
2022-09-23T07:15:08.789Z,99902.25
2022-09-23T07:17:35.573Z,99904.53
2022-09-23T07:20:02.950Z,99904.53
2022-09-23T07:22:29.753Z,99898.41
2022-09-23T07:24:56.516Z,99898.09
2022-09-23T07:27:27.849Z,99897.44
2022-09-23T07:29:54.674Z,99902.06
2022-09-23T07:32:22.845Z,99896.75
2022-09-23T07:34:50.226Z,99898.44
2022-09-23T07:37:18.318Z,99890.72
2022-09-23T07:39:45.779Z,99894.25
2022-09-23T07:42:12.617Z,99889.97
2022-09-23T07:44:40.425Z,99897.72
2022-09-23T07:47:07.329Z,99899.41
2022-09-23T07:49:35.597Z,99898.22
2022-09-23T07:52:03.464Z,99900.25
2022-09-23T07:54:30.224Z,99907.75
2022-09-23T07:56:57.358Z,99907.34
2022-09-23T07:59:24.256Z,99903.28
2022-09-23T08:01:52.844Z,99906.34
2022-09-23T08:04:24.118Z,99903.78
2022-09-23T08:07:02.723Z,99900.81
2022-09-23T08:09:33.562Z,99905.22
2022-09-23T08:12:00.610Z,99902.13
2022-09-23T08:14:27.407Z,99902.53
2022-09-23T08:16:54.222Z,99892.22
2022-09-23T08:19:21.092Z,99888.44
2022-09-23T08:21:48.018Z,99884.66
2022-09-23T08:24:18.151Z,99882.63
2022-09-23T08:26:46.641Z,99884.81
2022-09-23T08:29:16.255Z,99889.41
2022-09-23T08:31:43.573Z,99877.59
2022-09-23T08:34:11.021Z,99883.47
2022-09-23T08:36:37.841Z,99877.56
2022-09-23T08:39:06.165Z,99874.81
2022-09-23T08:41:45.073Z,99880.28
2022-09-23T08:44:28.133Z,99870.88
2022-09-23T08:47:09.374Z,99875.69
2022-09-23T08:49:58.591Z,99877.13
2022-09-23T08:53:05.613Z,99868.16
2022-09-23T08:55:59.765Z,99870.84
2022-09-23T08:58:49.525Z,99865.38
2022-09-23T09:01:34.427Z,99864.00
2022-09-23T09:04:23.177Z,99858.28
2022-09-23T09:07:34.782Z,99848.41
2022-09-23T09:10:18.814Z,99853.63
2022-09-23T09:12:49.172Z,99851.56
2022-09-23T09:15:24.676Z,99845.47
2022-09-23T09:18:13.165Z,99849.44
2022-09-23T09:20:59.716Z,99845.59
2022-09-23T09:23:29.286Z,99843.31
2022-09-23T09:26:01.262Z,99830.59
2022-09-23T09:28:37.456Z,99831.09
2022-09-23T09:31:27.589Z,99828.81
2022-09-23T09:34:11.179Z,99837.69
2022-09-23T09:37:00.429Z,99831.81
2022-09-23T09:39:29.079Z,99831.19
2022-09-23T09:41:55.896Z,99830.13
2022-09-23T09:44:44.338Z,99824.22
2022-09-23T09:47:17.260Z,99817.53
2022-09-23T09:49:54.058Z,99815.50
2022-09-23T09:52:26.230Z,99802.63
2022-09-23T09:54:53.182Z,99803.81
2022-09-23T09:57:45.874Z,99802.28
2022-09-23T10:00:21.816Z,99807.75
2022-09-23T10:02:57.652Z,99806.03
2022-09-23T10:05:31.914Z,99799.22
2022-09-23T10:08:26.684Z,99798.56
2022-09-23T10:10:59.639Z,99797.19
2022-09-23T10:13:27.841Z,99802.78
2022-09-23T10:15:55.469Z,99799.06
2022-09-23T10:18:47.154Z,99805.91
2022-09-23T10:21:17.102Z,99797.34
2022-09-23T10:23:56.012Z,99793.19
2022-09-23T10:26:34.051Z,99799.72
2022-09-23T10:29:19.395Z,99798.19
2022-09-23T10:31:46.225Z,99789.66
2022-09-23T10:34:28.947Z,99785.91
2022-09-23T10:37:03.488Z,99788.38
2022-09-23T10:39:30.309Z,99784.97
2022-09-23T10:42:15.657Z,99784.84
2022-09-23T10:45:01.556Z,99793.56
2022-09-23T10:47:51.125Z,99783.25
2022-09-23T10:50:35.544Z,99783.59
2022-09-23T10:53:23.988Z,99779.41
2022-09-23T10:55:50.701Z,99774.75
2022-09-23T10:58:17.328Z,99776.91
2022-09-23T11:00:47.291Z,99772.09
2022-09-23T11:03:50.388Z,99769.13
2022-09-23T11:06:56.252Z,99765.28
2022-09-23T11:09:41.492Z,99766.84
2022-09-23T11:12:33.765Z,99755.78
2022-09-23T11:15:06.226Z,99752.97
2022-09-23T11:18:06.589Z,99748.00
2022-09-23T11:20:39.631Z,99748.78
2022-09-23T11:23:24.680Z,99747.06
2022-09-23T11:26:10.607Z,99738.50
2022-09-23T11:28:52.235Z,99737.25
2022-09-23T11:31:43.217Z,99735.38
2022-09-23T11:34:31.385Z,99726.06
2022-09-23T11:37:08.456Z,99722.47
2022-09-23T11:39:42.828Z,99715.63
2022-09-23T11:42:20.180Z,99710.78
2022-09-23T11:44:58.410Z,99705.47
2022-09-23T11:47:39.738Z,99711.69
2022-09-23T11:50:36.551Z,99693.50
2022-09-23T11:53:20.360Z,99697.38
2022-09-23T11:56:07.636Z,99697.53
2022-09-23T11:58:51.118Z,99688.97
2022-09-23T12:01:37.698Z,99686.78
2022-09-23T12:04:17.791Z,99691.44
2022-09-23T12:06:53.327Z,99678.81
2022-09-23T12:09:57.865Z,99678.19
2022-09-23T12:13:00.408Z,99668.22
2022-09-23T12:15:56.178Z,99664.19
2022-09-23T12:18:38.889Z,99669.94
2022-09-23T12:21:32.788Z,99665.88
2022-09-23T12:24:37.559Z,99670.41
2022-09-23T12:27:09.201Z,99664.34
2022-09-23T12:29:38.475Z,99662.94
2022-09-23T12:32:05.485Z,99656.19
2022-09-23T12:34:42.777Z,99656.97
2022-09-23T12:37:09.911Z,99649.97
2022-09-23T12:39:38.698Z,99651.84
2022-09-23T12:42:15.502Z,99654.19
2022-09-23T12:44:45.004Z,99646.09
2022-09-23T12:47:14.493Z,99645.44
2022-09-23T12:49:43.253Z,99641.41
2022-09-23T12:52:13.592Z,99638.94
2022-09-23T12:54:41.907Z,99639.88
2022-09-23T12:57:34.912Z,99641.13
2022-09-23T13:00:07.829Z,99634.09
2022-09-23T13:02:39.072Z,99635.19
2022-09-23T13:05:08.709Z,99627.88
2022-09-23T13:07:40.849Z,99626.91
2022-09-23T13:10:39.991Z,99626.41
2022-09-23T13:13:18.213Z,99622.03
2022-09-23T13:15:45.656Z,99618.63
2022-09-23T13:18:21.610Z,99608.34
2022-09-23T13:20:55.701Z,99611.00
2022-09-23T13:23:27.980Z,99604.44
2022-09-23T13:25:59.383Z,99596.50
2022-09-23T13:28:32.193Z,99595.72
2022-09-23T13:31:02.487Z,99594.19
2022-09-23T13:33:51.785Z,99587.78
2022-09-23T13:36:20.164Z,99585.56
2022-09-23T13:38:47.060Z,99571.25
2022-09-23T13:41:15.484Z,99583.06
2022-09-23T13:43:49.703Z,99585.41
2022-09-23T13:46:27.357Z,99572.16
2022-09-23T13:48:55.620Z,99574.81
2022-09-23T13:51:33.077Z,99564.66
2022-09-23T13:54:03.410Z,99566.88
2022-09-23T13:56:32.538Z,99564.50
2022-09-23T13:59:31.835Z,99560.03
2022-09-23T14:02:12.482Z,99554.25
2022-09-23T14:04:39.872Z,99555.63
2022-09-23T14:07:13.222Z,99545.03
2022-09-23T14:09:45.192Z,99547.97
2022-09-23T14:12:12.333Z,99548.44
2022-09-23T14:14:41.066Z,99550.31
2022-09-23T14:17:09.022Z,99547.03
2022-09-23T14:19:37.086Z,99542.81
2022-09-23T14:22:05.637Z,99541.41
2022-09-23T14:24:36.794Z,99545.59
2022-09-23T14:27:06.566Z,99541.75
2022-09-23T14:29:37.061Z,99531.59
2022-09-23T14:32:20.800Z,99531.59
2022-09-23T14:35:06.176Z,99522.84
2022-09-23T14:37:39.071Z,99519.06
2022-09-23T14:40:12.472Z,99519.69
2022-09-23T14:42:43.841Z,99510.22
2022-09-23T14:45:16.033Z,99517.06
2022-09-23T14:47:52.263Z,99508.34
2022-09-23T14:50:25.594Z,99505.03
2022-09-23T14:52:52.625Z,99501.94
2022-09-23T14:55:19.546Z,99501.16
2022-09-23T14:57:46.285Z,99491.78
2022-09-23T15:00:17.515Z,99485.25
2022-09-23T15:03:02.742Z,99482.59
2022-09-23T15:05:45.838Z,99486.34
2022-09-23T15:08:18.876Z,99481.81
2022-09-23T15:10:46.251Z,99474.66
2022-09-23T15:13:18.010Z,99481.81
2022-09-23T15:15:45.296Z,99485.25
2022-09-23T15:18:23.217Z,99488.03
2022-09-23T15:20:52.460Z,99479.63
2022-09-23T15:23:52.720Z,99474.31
2022-09-23T15:26:25.640Z,99469.78
2022-09-23T15:28:56.087Z,99469.78
2022-09-23T15:31:24.146Z,99469.78
2022-09-23T15:33:51.448Z,99473.53
2022-09-23T15:36:24.594Z,99465.16
2022-09-23T15:38:51.954Z,99463.59
2022-09-23T15:41:19.033Z,99468.44
2022-09-23T15:43:45.914Z,99464.88
2022-09-23T15:46:21.895Z,99458.47
2022-09-23T15:49:05.294Z,99462.53
2022-09-23T15:51:32.309Z,99459.91
2022-09-23T15:53:59.055Z,99466.31
2022-09-23T15:56:25.944Z,99460.22
2022-09-23T15:58:52.843Z,99464.75
2022-09-23T16:01:28.256Z,99457.44
2022-09-23T16:03:55.247Z,99455.09
2022-09-23T16:06:22.348Z,99455.44
2022-09-23T16:08:49.219Z,99453.44
2022-09-23T16:11:22.151Z,99462.34
2022-09-23T16:13:48.901Z,99449.59
2022-09-23T16:16:15.911Z,99456.31
2022-09-23T16:18:43.041Z,99447.91
2022-09-23T16:21:12.961Z,99451.81
2022-09-23T16:23:43.741Z,99452.00
2022-09-23T16:26:10.495Z,99449.22
2022-09-23T16:28:37.293Z,99449.84
2022-09-23T16:31:04.284Z,99452.34
2022-09-23T16:33:31.113Z,99457.50
2022-09-23T16:35:58.796Z,99456.59
2022-09-23T16:38:25.465Z,99451.50
2022-09-23T16:40:52.475Z,99459.31
2022-09-23T16:43:19.177Z,99457.28
2022-09-23T16:45:45.992Z,99457.00
2022-09-23T16:48:12.865Z,99452.81
2022-09-23T16:50:39.573Z,99451.91
2022-09-23T16:53:06.406Z,99453.94
2022-09-23T16:55:33.121Z,99446.19
2022-09-23T16:57:59.834Z,99456.63
2022-09-23T17:00:26.709Z,99451.94
2022-09-23T17:02:53.486Z,99454.75
2022-09-23T17:05:20.295Z,99446.38
2022-09-23T17:07:46.977Z,99454.63
2022-09-23T17:10:13.777Z,99451.22
2022-09-23T17:12:40.596Z,99451.06
2022-09-23T17:15:08.598Z,99451.41
2022-09-23T17:17:36.377Z,99455.44
2022-09-23T17:20:05.375Z,99466.19
2022-09-23T17:22:34.637Z,99460.31
2022-09-23T17:25:01.952Z,99468.53
2022-09-23T17:27:28.684Z,99464.28
2022-09-23T17:29:55.638Z,99465.41
2022-09-23T17:32:22.341Z,99461.22
2022-09-23T17:34:49.259Z,99468.50
2022-09-23T17:37:16.066Z,99462.72
2022-09-23T17:39:43.009Z,99466.13
2022-09-23T17:42:09.829Z,99459.59
2022-09-23T17:44:36.558Z,99465.66
2022-09-23T17:47:03.421Z,99466.44
2022-09-23T17:49:30.182Z,99463.91
2022-09-23T17:51:56.941Z,99468.88
2022-09-23T17:54:23.712Z,99467.47
2022-09-23T17:56:50.502Z,99463.13
2022-09-23T17:59:17.268Z,99468.53
2022-09-23T18:01:44.236Z,99472.59
2022-09-23T18:04:11.072Z,99466.38
2022-09-23T18:06:38.024Z,99465.28
2022-09-23T18:09:06.991Z,99470.91
2022-09-23T18:11:36.551Z,99460.53
2022-09-23T18:14:05.747Z,99466.25
2022-09-23T18:16:37.842Z,99467.41
2022-09-23T18:19:05.105Z,99474.47
2022-09-23T18:21:34.476Z,99467.19
2022-09-23T18:26:48.740Z,99457.75
2022-09-23T18:29:16.060Z,99467.25
2022-09-23T18:31:43.652Z,99470.06
2022-09-23T18:34:13.155Z,99473.69
2022-09-23T18:36:40.266Z,99472.53
2022-09-23T18:39:07.077Z,99467.59
2022-09-23T18:41:34.985Z,99466.03
2022-09-23T18:44:02.866Z,99465.91
2022-09-23T18:46:31.147Z,99461.13
2022-09-23T18:48:59.291Z,99463.59
2022-09-23T18:51:26.979Z,99468.72
2022-09-23T18:53:54.020Z,99462.91
2022-09-23T18:56:20.758Z,99457.59
2022-09-23T18:58:49.239Z,99459.19
2022-09-23T19:01:16.664Z,99465.09
2022-09-23T19:03:43.768Z,99446.00
2022-09-23T19:06:14.338Z,99458.41
2022-09-23T19:08:44.675Z,99456.56
2022-09-23T19:11:13.384Z,99455.16
2022-09-23T19:13:40.974Z,99459.44
2022-09-23T19:16:10.921Z,99453.00
2022-09-23T19:18:39.722Z,99455.44
2022-09-23T19:21:11.884Z,99455.38
2022-09-23T19:23:40.140Z,99453.91
2022-09-23T19:26:09.866Z,99447.28
2022-09-23T19:28:37.693Z,99444.72
2022-09-23T19:31:12.847Z,99445.88
2022-09-23T19:33:39.714Z,99443.19
2022-09-23T19:36:06.935Z,99444.53
2022-09-23T19:38:33.704Z,99448.44
2022-09-23T19:41:05.266Z,99441.84
2022-09-23T19:43:32.264Z,99441.91
2022-09-23T19:45:59.064Z,99437.53
2022-09-23T19:48:25.815Z,99435.00
2022-09-23T19:50:52.654Z,99444.03
2022-09-23T19:53:19.635Z,99439.28
2022-09-23T19:55:46.610Z,99435.38
2022-09-23T19:58:13.424Z,99443.31
2022-09-23T20:00:40.815Z,99431.41
2022-09-23T20:03:09.158Z,99445.06
2022-09-23T20:05:35.947Z,99440.16
2022-09-23T20:08:05.378Z,99436.25
2022-09-23T20:10:33.066Z,99444.41
2022-09-23T20:12:59.919Z,99437.09
2022-09-23T20:15:26.676Z,99443.75
2022-09-23T20:17:53.486Z,99440.13
2022-09-23T20:20:20.576Z,99441.13
2022-09-23T20:22:47.350Z,99432.38
2022-09-23T20:25:14.240Z,99434.09
2022-09-23T20:27:40.983Z,99436.53
2022-09-23T20:30:08.360Z,99437.69
2022-09-23T20:32:35.245Z,99431.03
2022-09-23T20:35:02.038Z,99433.31
2022-09-23T20:37:28.859Z,99433.06
2022-09-23T20:39:55.837Z,99428.69
2022-09-23T20:42:22.622Z,99433.50
2022-09-23T20:44:49.888Z,99423.91
2022-09-23T20:47:17.970Z,99429.88
2022-09-23T20:49:46.047Z,99420.59
2022-09-23T20:52:17.610Z,99419.16
2022-09-23T20:54:44.403Z,99419.06
2022-09-23T20:57:12.928Z,99418.66
2022-09-23T20:59:40.396Z,99410.06
2022-09-23T21:02:08.342Z,99422.66
2022-09-23T21:04:35.119Z,99417.13
2022-09-23T21:07:02.269Z,99410.81
2022-09-23T21:09:29.900Z,99403.94
2022-09-23T21:11:57.360Z,99405.66
2022-09-23T21:14:24.211Z,99411.59
2022-09-23T21:16:51.401Z,99416.31
2022-09-23T21:19:18.613Z,99415.94
2022-09-23T21:21:45.661Z,99413.38
2022-09-23T21:24:43.762Z,99405.16
2022-09-23T21:26:59.342Z,99408.34
2022-09-23T21:29:26.123Z,99396.84
2022-09-23T21:31:52.958Z,99401.97
2022-09-23T21:34:19.823Z,99404.47
2022-09-23T21:36:47.824Z,99393.66
2022-09-23T21:39:14.568Z,99394.31
2022-09-23T21:41:41.499Z,99395.31
2022-09-23T21:44:08.525Z,99387.66
2022-09-23T21:46:36.962Z,99388.44
2022-09-23T21:49:04.324Z,99396.06
2022-09-23T21:51:37.222Z,99391.81
2022-09-23T21:54:05.008Z,99393.94
2022-09-23T21:56:32.883Z,99395.28
2022-09-23T21:58:59.635Z,99392.09
2022-09-23T22:01:31.735Z,99386.63
2022-09-23T22:04:01.595Z,99388.28
2022-09-23T22:06:28.886Z,99391.63
2022-09-23T22:09:01.385Z,99389.41
2022-09-23T22:11:31.535Z,99382.69
2022-09-23T22:14:00.222Z,99373.47
2022-09-23T22:16:28.593Z,99380.81
2022-09-23T22:18:57.516Z,99386.97
2022-09-23T22:21:26.592Z,99383.81
2022-09-23T22:23:55.247Z,99374.81
2022-09-23T22:26:22.028Z,99383.66
2022-09-23T22:28:48.946Z,99377.91
2022-09-23T22:31:15.992Z,99374.66
2022-09-23T22:33:42.812Z,99372.22
2022-09-23T22:36:09.543Z,99380.97
2022-09-23T22:38:36.311Z,99379.56
2022-09-23T22:41:03.444Z,99385.94
2022-09-23T22:43:33.231Z,99375.22
2022-09-23T22:45:59.994Z,99374.06
2022-09-23T22:48:26.696Z,99379.16
2022-09-23T22:50:53.660Z,99383.69
2022-09-23T22:53:20.389Z,99381.81
2022-09-23T22:55:57.739Z,99381.13
2022-09-23T22:58:32.203Z,99375.06
2022-09-23T23:00:59.750Z,99376.25
2022-09-23T23:03:26.654Z,99372.66
2022-09-23T23:05:54.135Z,99378.91
2022-09-23T23:08:21.301Z,99378.34
2022-09-23T23:10:48.089Z,99366.88
2022-09-23T23:13:14.921Z,99367.09
2022-09-23T23:15:41.754Z,99367.38
2022-09-23T23:18:08.719Z,99364.53
2022-09-23T23:20:35.525Z,99365.44
2022-09-23T23:23:02.419Z,99366.69
2022-09-23T23:25:29.680Z,99361.50
2022-09-23T23:27:56.720Z,99361.06
2022-09-23T23:30:24.182Z,99368.09
2022-09-23T23:32:51.008Z,99358.84
2022-09-23T23:35:17.794Z,99356.81
2022-09-23T23:37:44.613Z,99360.28
2022-09-23T23:40:11.444Z,99353.59
2022-09-23T23:42:38.268Z,99355.06
2022-09-23T23:45:05.592Z,99358.34
2022-09-23T23:47:32.452Z,99362.53
2022-09-23T23:49:59.272Z,99354.69
2022-09-23T23:52:26.064Z,99356.00
2022-09-23T23:54:52.794Z,99357.31
2022-09-23T23:57:19.565Z,99362.06
2022-09-23T23:59:46.313Z,99356.00
